Time;durP1;ratioP1;P1;durP2;ratioP2;P2;SDS_P1;SDS_P2;PMS_P1;PMS_P2;Temp;Humidity;BMP_temperature;BMP_pressure;BME280_temperature;BME280_humidity;BME280_pressure;Samples;Min_cycle;Max_cycle;Signal;HPM_P1;HPM_P2
2022/03/17 00:02:24;;;;;;;17.17;8.50;;;13.10;99.90;;;;;;5024437;28;20854;-71
2022/03/17 00:04:51;;;;;;;9.77;7.30;;;13.00;99.90;;;;;;5021778;28;20524;-71
2022/03/17 00:07:18;;;;;;;14.53;8.40;;;13.10;99.90;;;;;;5020992;28;20753;-70
2022/03/17 00:09:45;;;;;;;12.50;7.13;;;13.10;99.90;;;;;;5028132;28;20467;-70
2022/03/17 00:12:13;;;;;;;11.37;6.17;;;13.00;99.90;;;;;;5026863;28;20463;-71
2022/03/17 00:14:41;;;;;;;16.07;7.27;;;13.00;99.90;;;;;;5027458;28;20982;-74
2022/03/17 00:17:08;;;;;;;15.60;8.30;;;13.00;99.90;;;;;;5026030;28;20478;-70
2022/03/17 00:19:36;;;;;;;17.37;10.17;;;13.00;99.90;;;;;;5022181;28;20963;-72
2022/03/17 00:22:04;;;;;;;12.93;9.13;;;13.10;99.90;;;;;;5026457;28;20557;-72
2022/03/17 00:24:31;;;;;;;12.73;8.20;;;13.00;99.90;;;;;;5027895;28;21035;-70
2022/03/17 00:26:58;;;;;;;13.30;8.50;;;13.10;99.90;;;;;;5021087;28;20475;-71
2022/03/17 00:29:24;;;;;;;12.30;8.40;;;13.10;99.90;;;;;;5025325;28;20834;-71
2022/03/17 00:31:52;;;;;;;16.30;9.43;;;13.20;99.90;;;;;;5020207;28;20456;-71
2022/03/17 00:34:19;;;;;;;17.10;9.67;;;13.30;99.90;;;;;;5023468;28;20466;-71
2022/03/17 00:36:47;;;;;;;17.33;9.03;;;13.40;99.90;;;;;;5015327;28;20457;-69
2022/03/17 00:39:15;;;;;;;16.70;10.27;;;13.40;99.90;;;;;;5015798;28;20480;-70
2022/03/17 00:41:42;;;;;;;11.77;8.00;;;13.40;99.90;;;;;;5020154;28;20586;-69
2022/03/17 00:44:09;;;;;;;13.20;8.43;;;13.50;99.90;;;;;;5023500;28;20467;-67
2022/03/17 00:46:36;;;;;;;14.80;8.47;;;13.50;99.90;;;;;;5022057;28;20479;-69
2022/03/17 00:49:04;;;;;;;14.30;9.30;;;13.60;99.90;;;;;;5028791;28;20490;-70
2022/03/17 00:51:31;;;;;;;14.67;7.87;;;13.60;99.90;;;;;;5025872;28;21820;-70
2022/03/17 00:53:58;;;;;;;15.60;9.27;;;13.50;99.90;;;;;;5015766;28;20696;-68
2022/03/17 00:56:25;;;;;;;18.73;9.93;;;13.50;99.90;;;;;;5024689;28;20430;-70
2022/03/17 00:58:52;;;;;;;25.80;9.13;;;13.40;99.90;;;;;;5022552;28;20479;-68
2022/03/17 01:01:19;;;;;;;13.67;8.33;;;13.40;99.90;;;;;;5017718;28;21785;-69
2022/03/17 01:03:46;;;;;;;13.53;9.07;;;13.30;99.90;;;;;;5025031;28;20445;-68
2022/03/17 01:06:15;;;;;;;16.90;8.03;;;13.30;99.90;;;;;;5001180;28;20585;-69
2022/03/17 01:08:42;;;;;;;16.57;8.10;;;13.40;99.90;;;;;;5021019;28;20569;-70
2022/03/17 01:11:08;;;;;;;13.17;9.20;;;13.50;99.90;;;;;;5037464;28;20599;-68
2022/03/17 01:13:35;;;;;;;16.47;9.87;;;13.40;99.90;;;;;;5019095;28;20483;-68
2022/03/17 01:16:05;;;;;;;14.27;9.93;;;13.20;99.90;;;;;;5025674;28;20800;-69
2022/03/17 01:18:31;;;;;;;18.47;8.70;;;13.30;99.90;;;;;;5023518;28;20526;-69
2022/03/17 01:20:58;;;;;;;13.77;8.40;;;13.30;99.90;;;;;;5021519;28;20445;-68
2022/03/17 01:23:26;;;;;;;14.20;9.13;;;13.20;99.90;;;;;;5029161;28;20494;-69
2022/03/17 01:25:53;;;;;;;15.13;8.33;;;13.30;99.90;;;;;;5025910;28;20463;-68
2022/03/17 01:28:20;;;;;;;17.77;9.13;;;13.50;99.90;;;;;;5017373;28;20522;-69
2022/03/17 01:30:47;;;;;;;16.47;9.47;;;13.50;99.90;;;;;;5022535;28;20991;-70
2022/03/17 01:33:13;;;;;;;12.90;8.53;;;13.50;99.90;;;;;;5028910;28;20868;-69
2022/03/17 01:35:40;;;;;;;15.37;9.10;;;13.40;99.90;;;;;;5028109;28;20464;-68
2022/03/17 01:38:07;;;;;;;15.10;8.67;;;13.50;99.90;;;;;;5020101;28;21134;-70
2022/03/17 01:40:35;;;;;;;16.07;9.13;;;13.40;99.90;;;;;;5019077;28;20943;-69
2022/03/17 01:43:02;;;;;;;12.60;8.00;;;13.50;99.90;;;;;;5030312;28;20460;-68
2022/03/17 01:45:29;;;;;;;14.60;8.33;;;13.50;99.90;;;;;;5030993;28;20464;-69
2022/03/17 01:47:56;;;;;;;15.50;9.83;;;13.60;99.90;;;;;;5026485;28;20487;-69
2022/03/17 01:50:24;;;;;;;13.23;8.60;;;13.60;99.90;;;;;;5024506;28;20468;-70
2022/03/17 01:52:51;;;;;;;17.27;9.73;;;13.60;99.90;;;;;;5024003;28;20455;-69
2022/03/17 01:55:18;;;;;;;13.33;7.20;;;13.60;99.90;;;;;;5020067;28;20554;-69
2022/03/17 01:57:47;;;;;;;12.67;7.93;;;13.50;99.90;;;;;;5017505;28;20447;-67
2022/03/17 02:00:17;;;;;;;13.50;7.70;;;13.50;99.90;;;;;;5015291;28;20467;-72
2022/03/17 02:02:44;;;;;;;15.90;9.67;;;13.50;99.90;;;;;;5020343;28;20460;-70
2022/03/17 02:05:12;;;;;;;26.00;10.63;;;13.50;99.90;;;;;;5026149;28;20517;-70
2022/03/17 02:07:40;;;;;;;14.53;9.50;;;13.40;99.90;;;;;;5024299;28;20489;-71
2022/03/17 02:10:08;;;;;;;14.40;8.47;;;13.40;99.90;;;;;;5021064;28;20594;-71
2022/03/17 02:15:27;;;;;;;15.17;9.97;;;13.40;99.90;;;;;;5019382;28;20551;-70
2022/03/17 02:17:54;;;;;;;14.27;9.20;;;13.30;99.90;;;;;;5018488;28;22550;-71
2022/03/17 02:20:24;;;;;;;14.67;9.30;;;13.30;99.90;;;;;;5024063;28;20586;-70
2022/03/17 02:22:53;;;;;;;11.57;7.50;;;13.20;99.90;;;;;;5029114;28;20459;-71
2022/03/17 02:25:38;;;;;;;16.63;10.37;;;13.20;99.90;;;;;;5021014;28;20467;-71
2022/03/17 02:28:07;;;;;;;15.27;8.63;;;13.20;99.90;;;;;;5026010;28;20796;-71
2022/03/17 02:30:37;;;;;;;9.23;5.70;;;13.20;99.90;;;;;;5025201;28;20462;-71
2022/03/17 02:33:06;;;;;;;16.03;9.83;;;13.20;99.90;;;;;;5026950;28;20830;-70
2022/03/17 02:35:34;;;;;;;7.90;5.57;;;13.20;99.90;;;;;;5025726;28;20528;-71
2022/03/17 02:38:03;;;;;;;12.43;8.30;;;13.10;99.90;;;;;;5020911;28;20467;-68
2022/03/17 02:40:31;;;;;;;10.63;5.60;;;13.10;99.90;;;;;;5017363;28;20479;-69
2022/03/17 02:42:58;;;;;;;13.73;7.73;;;13.20;99.90;;;;;;5024116;28;20463;-69
2022/03/17 02:45:26;;;;;;;21.93;8.07;;;13.20;99.90;;;;;;5025288;28;20452;-69
2022/03/17 02:47:53;;;;;;;16.30;8.97;;;13.20;99.90;;;;;;5022631;28;20487;-71
2022/03/17 02:50:20;;;;;;;11.67;9.47;;;13.20;99.90;;;;;;5026210;28;20493;-70
2022/03/17 02:52:47;;;;;;;16.20;8.87;;;13.10;99.90;;;;;;5027316;28;20467;-70
2022/03/17 02:55:14;;;;;;;17.00;10.30;;;13.10;99.90;;;;;;5024226;28;20868;-70
2022/03/17 02:57:45;;;;;;;13.70;7.97;;;13.10;99.90;;;;;;5020434;28;21106;-70
2022/03/17 03:00:13;;;;;;;20.97;10.47;;;13.10;99.90;;;;;;5017069;28;20595;-70
2022/03/17 03:02:41;;;;;;;12.70;7.57;;;13.00;99.90;;;;;;5024171;28;23051;-69
2022/03/17 03:05:09;;;;;;;12.90;6.53;;;13.00;99.90;;;;;;5020324;28;21172;-69
2022/03/17 03:07:37;;;;;;;17.07;11.30;;;13.00;99.90;;;;;;5026675;28;20479;-70
2022/03/17 03:10:04;;;;;;;12.97;9.40;;;13.00;99.90;;;;;;5014144;28;20466;-70
2022/03/17 03:12:31;;;;;;;11.37;6.30;;;13.00;99.90;;;;;;5024453;28;20468;-70
2022/03/17 03:14:59;;;;;;;13.20;8.87;;;12.90;99.90;;;;;;5024600;28;20486;-70
2022/03/17 03:17:25;;;;;;;18.73;9.90;;;12.90;99.90;;;;;;5020605;28;20511;-71
2022/03/17 03:19:52;;;;;;;12.67;8.07;;;12.80;99.90;;;;;;5025087;28;20525;-71
2022/03/17 03:22:19;;;;;;;12.47;6.90;;;12.90;99.90;;;;;;5019146;28;20518;-67
2022/03/17 03:24:46;;;;;;;13.67;9.57;;;12.80;99.90;;;;;;5028416;28;20835;-67
2022/03/17 03:27:13;;;;;;;14.20;10.73;;;12.80;99.90;;;;;;5021667;28;20563;-68
2022/03/17 03:29:40;;;;;;;18.83;11.10;;;13.00;99.90;;;;;;5032111;28;20460;-68
2022/03/17 03:32:09;;;;;;;14.40;9.30;;;13.00;99.90;;;;;;5023219;28;20505;-68
2022/03/17 03:34:36;;;;;;;17.20;9.30;;;13.00;99.90;;;;;;5024774;28;20461;-68
2022/03/17 03:39:47;;;;;;;13.00;8.53;;;12.90;99.90;;;;;;5021555;28;20451;-68
2022/03/17 03:42:14;;;;;;;11.77;7.37;;;12.90;99.90;;;;;;5021492;28;20548;-68
2022/03/17 03:44:41;;;;;;;14.90;9.57;;;12.90;99.90;;;;;;5026860;28;21197;-68
2022/03/17 03:47:10;;;;;;;18.53;7.60;;;13.00;99.90;;;;;;5026890;28;20871;-68
2022/03/17 03:49:39;;;;;;;15.93;8.23;;;13.00;99.90;;;;;;5021880;28;20468;-71
2022/03/17 03:52:06;;;;;;;14.67;8.90;;;12.90;99.90;;;;;;5020432;28;20490;-69
2022/03/17 03:54:33;;;;;;;15.07;9.53;;;12.80;99.90;;;;;;5032057;28;20928;-70
2022/03/17 03:56:59;;;;;;;10.70;7.53;;;12.90;99.90;;;;;;5018118;28;20514;-71
2022/03/17 03:59:28;;;;;;;12.23;8.17;;;12.90;99.90;;;;;;5027993;28;20592;-69
2022/03/17 04:01:57;;;;;;;15.50;8.13;;;12.90;99.90;;;;;;5027480;28;20503;-67
2022/03/17 04:04:26;;;;;;;14.13;8.57;;;13.00;99.90;;;;;;5021003;28;20964;-68
2022/03/17 04:06:56;;;;;;;11.97;9.93;;;12.90;99.90;;;;;;5020328;28;20491;-68
2022/03/17 04:09:25;;;;;;;15.50;9.43;;;12.70;99.90;;;;;;5027374;28;20630;-68
2022/03/17 04:11:53;;;;;;;14.07;10.27;;;12.80;99.90;;;;;;5026086;28;20469;-67
2022/03/17 04:14:20;;;;;;;16.27;9.17;;;12.80;99.90;;;;;;5024766;28;20524;-68
2022/03/17 04:16:47;;;;;;;15.77;7.40;;;12.90;99.90;;;;;;5017170;28;20471;-67
2022/03/17 04:19:15;;;;;;;12.90;8.40;;;12.80;99.90;;;;;;5016982;28;20848;-67
2022/03/17 04:21:43;;;;;;;15.50;10.00;;;12.80;99.90;;;;;;5025230;28;20434;-67
2022/03/17 04:24:10;;;;;;;17.13;9.53;;;12.70;99.90;;;;;;5021908;28;20947;-67
2022/03/17 04:26:37;;;;;;;8.63;5.23;;;12.70;99.90;;;;;;5023399;28;20463;-68
2022/03/17 04:29:04;;;;;;;9.77;5.20;;;12.70;99.90;;;;;;5017142;28;20480;-69
2022/03/17 04:31:31;;;;;;;5.53;3.27;;;12.60;99.90;;;;;;5022594;28;21029;-68
2022/03/17 04:33:58;;;;;;;13.50;8.37;;;12.60;99.90;;;;;;5015836;28;20525;-69
2022/03/17 04:36:25;;;;;;;20.67;8.70;;;12.70;99.90;;;;;;5021278;28;20478;-69
2022/03/17 04:38:53;;;;;;;17.77;10.73;;;12.80;99.90;;;;;;5017475;28;20495;-68
2022/03/17 04:41:19;;;;;;;17.53;10.10;;;12.70;99.90;;;;;;5020489;28;20466;-69
2022/03/17 04:43:46;;;;;;;21.17;11.00;;;12.80;99.90;;;;;;5014470;28;20565;-68
2022/03/17 04:46:13;;;;;;;17.07;9.37;;;12.80;99.90;;;;;;5016432;28;20446;-69
2022/03/17 04:48:40;;;;;;;16.00;8.57;;;12.90;99.90;;;;;;5019574;28;20519;-68
2022/03/17 04:51:07;;;;;;;12.87;8.10;;;12.80;99.90;;;;;;5019053;28;20471;-69
2022/03/17 04:53:34;;;;;;;17.27;8.30;;;12.80;99.90;;;;;;5020065;28;20638;-68
2022/03/17 04:56:04;;;;;;;21.73;12.30;;;12.80;99.90;;;;;;5021813;28;20529;-67
2022/03/17 04:58:34;;;;;;;14.10;8.23;;;12.70;99.90;;;;;;5018256;28;20487;-68
2022/03/17 05:01:01;;;;;;;18.73;10.03;;;12.70;99.90;;;;;;5016132;28;20447;-69
2022/03/17 05:03:28;;;;;;;12.90;9.13;;;12.70;99.90;;;;;;5018359;28;20459;-68
2022/03/17 05:05:56;;;;;;;20.53;9.77;;;12.70;99.90;;;;;;5018498;28;20491;-69
2022/03/17 05:08:25;;;;;;;10.27;5.67;;;12.70;99.90;;;;;;5006083;28;20495;-68
2022/03/17 05:10:53;;;;;;;20.00;11.03;;;12.70;99.90;;;;;;5033349;28;20467;-68
2022/03/17 05:13:23;;;;;;;18.33;10.27;;;12.70;99.90;;;;;;5021203;28;20843;-68
2022/03/17 05:15:51;;;;;;;16.17;10.60;;;12.60;99.90;;;;;;5020754;28;20521;-68
2022/03/17 05:18:19;;;;;;;16.13;8.73;;;12.60;99.90;;;;;;5020955;28;20506;-69
2022/03/17 05:20:46;;;;;;;19.57;9.90;;;12.70;99.90;;;;;;5015108;28;20552;-70
2022/03/17 05:23:14;;;;;;;17.40;11.07;;;12.70;99.90;;;;;;5028581;28;20455;-67
2022/03/17 05:25:42;;;;;;;18.50;9.07;;;12.70;99.90;;;;;;5036815;28;20437;-69
2022/03/17 05:28:09;;;;;;;14.60;9.70;;;12.80;99.90;;;;;;5034406;28;20525;-69
2022/03/17 05:30:39;;;;;;;20.20;12.63;;;12.70;99.90;;;;;;5034429;28;20456;-69
2022/03/17 05:33:07;;;;;;;17.20;11.30;;;12.70;99.90;;;;;;5029139;28;20517;-68
2022/03/17 05:35:35;;;;;;;16.90;9.53;;;12.90;99.90;;;;;;5013769;28;20683;-69
2022/03/17 05:38:02;;;;;;;19.60;11.27;;;12.80;99.90;;;;;;5016482;28;22211;-68
2022/03/17 05:40:29;;;;;;;18.80;11.90;;;12.80;99.90;;;;;;5027319;28;20468;-68
2022/03/17 05:42:57;;;;;;;21.10;10.20;;;12.80;99.90;;;;;;5035866;28;20467;-69
2022/03/17 05:45:26;;;;;;;19.70;11.00;;;12.70;99.90;;;;;;5028391;28;20517;-68
2022/03/17 05:47:55;;;;;;;19.70;10.67;;;12.50;99.90;;;;;;5024885;28;20906;-69
2022/03/17 05:50:24;;;;;;;20.90;12.50;;;12.40;99.90;;;;;;5034185;28;20469;-68
2022/03/17 05:52:52;;;;;;;14.13;7.93;;;12.30;99.90;;;;;;5039697;28;20452;-69
2022/03/17 05:55:21;;;;;;;22.10;10.80;;;12.20;99.90;;;;;;5032260;28;20551;-69
2022/03/17 05:57:49;;;;;;;16.80;7.97;;;11.90;99.90;;;;;;5030441;28;20445;-69
2022/03/17 06:00:19;;;;;;;23.97;13.03;;;11.90;99.90;;;;;;5040680;28;20519;-69
2022/03/17 06:02:46;;;;;;;25.60;11.80;;;11.80;99.90;;;;;;5031847;28;20438;-70
2022/03/17 06:05:14;;;;;;;16.43;12.90;;;11.70;99.90;;;;;;5045179;28;20956;-69
2022/03/17 06:07:42;;;;;;;19.80;11.07;;;11.70;99.90;;;;;;5033001;28;20483;-70
2022/03/17 06:10:10;;;;;;;26.63;11.57;;;11.60;99.90;;;;;;5037808;28;20518;-71
2022/03/17 06:12:38;;;;;;;25.97;11.93;;;11.60;99.90;;;;;;5036656;28;20442;-71
2022/03/17 06:15:07;;;;;;;21.13;12.70;;;11.70;99.90;;;;;;5037170;28;20454;-72
2022/03/17 06:17:38;;;;;;;15.20;9.17;;;11.80;99.90;;;;;;5033638;28;20475;-71
2022/03/17 06:20:05;;;;;;;21.27;12.90;;;11.70;99.90;;;;;;5040115;28;20617;-70
2022/03/17 06:22:34;;;;;;;18.17;11.80;;;11.70;99.90;;;;;;5030406;28;20459;-71
2022/03/17 06:25:01;;;;;;;24.20;13.33;;;11.50;99.90;;;;;;5032973;28;20876;-71
2022/03/17 06:27:27;;;;;;;27.50;13.80;;;11.50;99.90;;;;;;5031786;28;20534;-71
2022/03/17 06:29:54;;;;;;;24.03;12.93;;;11.60;99.90;;;;;;5041023;28;20430;-70
2022/03/17 06:32:20;;;;;;;22.73;11.20;;;11.40;99.90;;;;;;5034523;28;20462;-72
2022/03/17 06:34:47;;;;;;;30.63;14.40;;;11.40;99.90;;;;;;5038369;28;20463;-72
2022/03/17 06:37:14;;;;;;;26.80;17.10;;;11.40;99.90;;;;;;5033915;28;21698;-70
2022/03/17 06:39:42;;;;;;;23.37;13.50;;;11.30;99.90;;;;;;5033256;28;20893;-70
2022/03/17 06:42:09;;;;;;;27.33;15.20;;;11.30;99.90;;;;;;5037606;28;20464;-70
2022/03/17 06:44:35;;;;;;;25.77;12.93;;;11.40;99.90;;;;;;5026124;28;20455;-71
2022/03/17 06:47:02;;;;;;;24.57;12.07;;;11.30;99.90;;;;;;5023331;28;21468;-70
2022/03/17 06:49:29;;;;;;;20.27;10.03;;;11.20;99.90;;;;;;5035279;28;20449;-70
2022/03/17 06:51:56;;;;;;;29.33;13.47;;;11.20;99.90;;;;;;5036629;28;20430;-71
2022/03/17 06:54:23;;;;;;;28.03;15.67;;;11.10;99.90;;;;;;5034267;28;20501;-70
2022/03/17 06:56:51;;;;;;;26.90;15.33;;;11.00;99.90;;;;;;5040325;28;20467;-70
2022/03/17 06:59:18;;;;;;;11.77;7.77;;;10.80;99.90;;;;;;5035264;28;20468;-70
2022/03/17 07:01:45;;;;;;;5.97;4.87;;;10.70;99.90;;;;;;5038139;28;21697;-71
2022/03/17 07:04:12;;;;;;;13.63;6.47;;;10.30;99.90;;;;;;5037822;28;20805;-71
2022/03/17 07:06:38;;;;;;;15.40;7.63;;;10.10;99.90;;;;;;5038842;28;20426;-71
2022/03/17 07:09:05;;;;;;;7.37;6.57;;;10.00;99.90;;;;;;5043804;28;20838;-69
2022/03/17 07:11:32;;;;;;;7.83;5.43;;;9.90;99.90;;;;;;5045578;28;20436;-70
2022/03/17 07:14:00;;;;;;;6.03;4.40;;;9.60;99.90;;;;;;5047071;28;20475;-70
2022/03/17 07:16:27;;;;;;;11.70;6.43;;;9.70;99.90;;;;;;5035454;28;20463;-71
2022/03/17 07:18:53;;;;;;;9.73;6.03;;;9.60;99.90;;;;;;5036144;28;20450;-71
2022/03/17 07:21:20;;;;;;;10.60;6.57;;;9.60;99.90;;;;;;5043647;28;20466;-70
2022/03/17 07:23:47;;;;;;;4.00;2.73;;;9.70;99.90;;;;;;5036999;28;20430;-70
2022/03/17 07:26:14;;;;;;;8.30;7.50;;;9.70;99.90;;;;;;5040729;28;20649;-71
2022/03/17 07:28:40;;;;;;;11.40;8.00;;;9.70;99.90;;;;;;5034556;28;20519;-71
2022/03/17 07:31:08;;;;;;;10.80;5.13;;;9.70;99.90;;;;;;5036610;28;20552;-70
2022/03/17 07:33:37;;;;;;;9.07;4.80;;;9.70;99.90;;;;;;5037785;28;20862;-70
2022/03/17 07:36:04;;;;;;;13.50;5.97;;;9.80;99.90;;;;;;5040624;28;20452;-70
2022/03/17 07:38:31;;;;;;;18.40;7.03;;;9.70;99.90;;;;;;5046198;28;20445;-70
2022/03/17 07:40:57;;;;;;;12.70;5.70;;;9.70;99.90;;;;;;5036722;28;20455;-70
2022/03/17 07:43:27;;;;;;;4.33;4.00;;;9.70;99.90;;;;;;5037103;28;20482;-70
2022/03/17 07:45:54;;;;;;;9.83;5.73;;;9.70;99.90;;;;;;5040006;28;20429;-70
2022/03/17 07:48:22;;;;;;;9.97;4.80;;;9.50;99.90;;;;;;5039557;28;20453;-69
2022/03/17 07:50:50;;;;;;;12.83;8.30;;;9.50;99.90;;;;;;5043814;28;20833;-70
2022/03/17 07:53:16;;;;;;;14.20;6.83;;;9.50;99.90;;;;;;5043094;28;20846;-70
2022/03/17 07:55:44;;;;;;;13.47;7.33;;;9.50;99.90;;;;;;5038602;28;20427;-70
2022/03/17 07:58:11;;;;;;;9.17;5.70;;;9.50;99.90;;;;;;5031544;28;20553;-70
2022/03/17 08:00:38;;;;;;;11.67;5.80;;;9.40;99.90;;;;;;5032781;28;20536;-70
2022/03/17 08:03:05;;;;;;;10.53;6.47;;;9.40;99.90;;;;;;5038848;28;20827;-73
2022/03/17 08:05:33;;;;;;;8.33;5.40;;;9.40;99.90;;;;;;5035263;28;21053;-70
2022/03/17 08:08:02;;;;;;;6.63;5.50;;;9.40;99.90;;;;;;5035528;28;20784;-70
2022/03/17 08:10:29;;;;;;;6.10;3.87;;;9.30;99.90;;;;;;5040632;28;21056;-71
2022/03/17 08:12:55;;;;;;;9.90;5.30;;;9.40;99.90;;;;;;5042416;28;20537;-71
2022/03/17 08:15:24;;;;;;;5.23;4.43;;;9.20;99.90;;;;;;5039052;28;21746;-70
2022/03/17 08:17:51;;;;;;;7.27;6.13;;;9.30;99.90;;;;;;5041437;28;20454;-71
2022/03/17 08:20:18;;;;;;;14.20;5.20;;;9.40;99.90;;;;;;5034377;28;20937;-70
2022/03/17 08:22:48;;;;;;;7.47;3.10;;;9.40;99.90;;;;;;5043993;28;20960;-71
2022/03/17 08:25:14;;;;;;;10.80;5.60;;;9.50;99.90;;;;;;5034723;28;20449;-69
2022/03/17 08:27:42;;;;;;;9.90;6.23;;;9.40;99.90;;;;;;5039361;28;20458;-71
2022/03/17 08:30:09;;;;;;;5.63;4.23;;;9.60;99.90;;;;;;5039250;28;20823;-70
2022/03/17 08:32:36;;;;;;;3.50;2.60;;;9.70;99.90;;;;;;5036239;28;20466;-71
2022/03/17 08:35:05;;;;;;;12.10;4.13;;;9.70;99.90;;;;;;5040343;28;20437;-72
2022/03/17 08:37:31;;;;;;;4.70;2.47;;;9.80;99.90;;;;;;5042700;28;20485;-71
2022/03/17 08:39:59;;;;;;;11.50;5.27;;;9.70;99.90;;;;;;5036273;28;21107;-69
2022/03/17 08:42:26;;;;;;;6.20;4.90;;;9.70;99.90;;;;;;5037145;28;20442;-70
2022/03/17 08:44:53;;;;;;;5.90;2.80;;;9.80;99.90;;;;;;5041758;28;21018;-69
2022/03/17 08:50:04;;;;;;;2.50;1.47;;;9.70;99.90;;;;;;5041155;28;20449;-71
2022/03/17 08:52:31;;;;;;;6.13;3.70;;;9.70;99.90;;;;;;5032453;28;20488;-70
2022/03/17 08:54:59;;;;;;;5.07;3.77;;;9.40;99.90;;;;;;5039401;28;20442;-71
2022/03/17 08:57:26;;;;;;;3.50;3.10;;;9.50;99.90;;;;;;5038292;28;20519;-69
2022/03/17 08:59:53;;;;;;;7.30;2.37;;;9.50;99.90;;;;;;5039228;28;20514;-70
2022/03/17 09:02:19;;;;;;;6.17;3.70;;;9.80;99.90;;;;;;5033555;28;20912;-70
2022/03/17 09:04:46;;;;;;;2.53;2.20;;;9.70;99.90;;;;;;5038828;28;20433;-70
2022/03/17 09:07:13;;;;;;;5.03;2.73;;;9.80;99.90;;;;;;5034793;28;20438;-69
2022/03/17 09:09:40;;;;;;;3.53;2.20;;;9.60;99.90;;;;;;5039688;28;20496;-71
2022/03/17 09:12:09;;;;;;;3.00;2.70;;;9.60;99.90;;;;;;5029954;28;20438;-70
2022/03/17 09:14:38;;;;;;;4.13;3.10;;;9.60;99.90;;;;;;5037173;28;20545;-71
2022/03/17 09:17:05;;;;;;;4.23;2.97;;;9.70;99.90;;;;;;5033341;28;20918;-71
2022/03/17 09:19:32;;;;;;;2.90;2.43;;;9.90;99.90;;;;;;5037077;28;20986;-70
2022/03/17 09:21:59;;;;;;;2.20;1.63;;;10.00;99.90;;;;;;5038560;28;20793;-71
2022/03/17 09:24:26;;;;;;;10.13;1.67;;;10.10;99.90;;;;;;5055634;22;20531;-70
2022/03/17 09:26:53;;;;;;;4.83;2.87;;;9.80;99.90;;;;;;5037071;28;20513;-71
2022/03/17 09:29:21;;;;;;;5.80;2.90;;;9.80;99.90;;;;;;5042192;28;20564;-71
2022/03/17 09:31:49;;;;;;;3.50;2.20;;;10.00;99.90;;;;;;5036297;28;20517;-71
2022/03/17 09:34:15;;;;;;;3.10;1.90;;;9.90;99.90;;;;;;5032779;28;20533;-70
2022/03/17 09:36:42;;;;;;;7.47;2.57;;;9.80;99.90;;;;;;5036180;28;20488;-69
2022/03/17 09:41:53;;;;;;;3.67;2.03;;;10.00;99.90;;;;;;5035802;28;20556;-70
2022/03/17 09:44:21;;;;;;;4.30;2.93;;;10.00;99.90;;;;;;5040114;28;20450;-71
2022/03/17 09:46:49;;;;;;;7.57;2.53;;;10.00;99.90;;;;;;5036593;28;20435;-70
2022/03/17 09:49:16;;;;;;;2.50;1.87;;;9.90;99.90;;;;;;5035559;28;20450;-71
2022/03/17 09:51:44;;;;;;;2.77;2.40;;;9.80;99.90;;;;;;5031958;28;20455;-69
2022/03/17 09:54:11;;;;;;;2.33;1.67;;;10.00;99.90;;;;;;5035433;28;20871;-70
2022/03/17 09:56:38;;;;;;;4.13;2.13;;;10.20;99.90;;;;;;5030886;28;20524;-71
2022/03/17 09:59:06;;;;;;;10.00;2.00;;;10.10;99.90;;;;;;5030487;28;20495;-70
2022/03/17 10:01:35;;;;;;;2.80;1.80;;;10.00;99.90;;;;;;5035708;28;20460;-70
2022/03/17 10:04:03;;;;;;;2.67;1.97;;;10.00;99.90;;;;;;5040981;28;21387;-71
2022/03/17 10:06:30;;;;;;;4.93;2.27;;;10.10;99.90;;;;;;5039273;28;20438;-71
2022/03/17 10:08:57;;;;;;;6.90;1.90;;;10.30;99.90;;;;;;5040704;28;20537;-70
2022/03/17 10:11:29;;;;;;;4.13;2.50;;;10.20;99.90;;;;;;5035496;28;20851;-70
2022/03/17 10:13:56;;;;;;;2.27;1.57;;;10.20;99.90;;;;;;5035694;28;20462;-69
2022/03/17 10:16:23;;;;;;;3.80;2.20;;;10.10;99.90;;;;;;5032260;28;21398;-69
2022/03/17 10:18:59;;;;;;;4.30;1.70;;;9.90;99.90;;;;;;5030140;28;20430;-70
2022/03/17 10:21:28;;;;;;;4.30;1.93;;;9.80;99.90;;;;;;5037036;28;20469;-70
2022/03/17 10:23:59;;;;;;;5.17;2.13;;;9.80;99.90;;;;;;5038029;28;20483;-68
2022/03/17 10:26:47;;;;;;;3.03;2.73;;;9.90;99.90;;;;;;5038555;28;20440;-69
2022/03/17 10:29:16;;;;;;;5.63;2.40;;;10.00;99.90;;;;;;5030340;28;20494;-71
2022/03/17 10:31:54;;;;;;;2.93;2.30;;;10.00;99.90;;;;;;5034354;28;20445;-71
2022/03/17 10:34:24;;;;;;;3.10;1.70;;;10.10;99.90;;;;;;5038830;28;20565;-70
2022/03/17 10:36:51;;;;;;;2.37;1.63;;;10.10;99.90;;;;;;5034215;28;20513;-70
2022/03/17 10:39:19;;;;;;;3.90;1.90;;;10.00;99.90;;;;;;5040985;28;20460;-69
2022/03/17 10:41:48;;;;;;;8.80;1.53;;;10.00;99.90;;;;;;5044689;28;20471;-70
2022/03/17 10:44:16;;;;;;;3.23;2.00;;;10.00;99.90;;;;;;5042527;28;20454;-69
2022/03/17 10:46:55;;;;;;;1.67;1.43;;;10.00;99.90;;;;;;5043668;28;20458;-69
2022/03/17 10:49:23;;;;;;;1.70;1.60;;;10.10;99.90;;;;;;5048938;28;20500;-69
2022/03/17 10:51:54;;;;;;;2.27;2.00;;;10.00;99.90;;;;;;5040950;28;20559;-70
2022/03/17 10:54:22;;;;;;;1.60;1.20;;;10.10;99.90;;;;;;5036704;28;20566;-70
2022/03/17 10:56:59;;;;;;;6.70;1.40;;;10.10;99.90;;;;;;5044720;28;20473;-70
2022/03/17 10:59:38;;;;;;;2.33;1.20;;;10.20;99.90;;;;;;5040788;28;20458;-70
2022/03/17 11:02:08;;;;;;;11.03;1.83;;;10.20;99.90;;;;;;5042573;28;20487;-71
2022/03/17 11:04:37;;;;;;;3.70;1.23;;;10.20;99.90;;;;;;5043433;28;20471;-68
2022/03/17 11:07:07;;;;;;;1.80;1.23;;;10.20;99.90;;;;;;5044374;28;20422;-69
2022/03/17 11:09:36;;;;;;;1.10;1.00;;;10.20;99.90;;;;;;5039695;28;20462;-70
2022/03/17 11:12:04;;;;;;;2.83;1.33;;;10.10;99.90;;;;;;5044444;28;20554;-70
2022/03/17 11:14:31;;;;;;;5.20;2.17;;;10.00;99.90;;;;;;5048055;28;20471;-70
2022/03/17 11:17:02;;;;;;;1.50;1.03;;;10.00;99.90;;;;;;5039275;28;21176;-70
2022/03/17 11:19:29;;;;;;;5.03;1.43;;;10.20;99.90;;;;;;5041287;28;20527;-70
2022/03/17 11:22:10;;;;;;;2.30;1.43;;;10.60;99.90;;;;;;5037314;28;20463;-71
2022/03/17 11:24:38;;;;;;;5.70;1.40;;;10.60;99.90;;;;;;5046284;28;20608;-71
2022/03/17 11:27:09;;;;;;;4.17;1.50;;;10.50;99.90;;;;;;5044473;28;20883;-70
2022/03/17 11:29:40;;;;;;;1.57;1.47;;;10.50;99.90;;;;;;5042535;28;20584;-70
2022/03/17 11:32:09;;;;;;;1.30;1.17;;;10.50;99.90;;;;;;5043085;28;20434;-69
2022/03/17 11:34:46;;;;;;;1.20;0.87;;;10.40;99.90;;;;;;5046236;28;20510;-69
2022/03/17 11:37:24;;;;;;;1.50;1.10;;;10.50;99.90;;;;;;5036723;28;20425;-70
2022/03/17 11:39:52;;;;;;;1.30;1.20;;;10.50;99.90;;;;;;5038263;28;20430;-69
2022/03/17 11:42:39;;;;;;;7.53;1.50;;;10.60;99.90;;;;;;5039058;28;21023;-69
2022/03/17 11:45:41;;;;;;;4.47;1.40;;;10.70;99.90;;;;;;5036845;28;20445;-70
2022/03/17 11:48:13;;;;;;;1.90;1.30;;;10.80;99.90;;;;;;5038755;28;20546;-70
2022/03/17 11:50:43;;;;;;;1.20;0.90;;;11.00;99.90;;;;;;5040669;28;20997;-69
2022/03/17 11:53:22;;;;;;;2.20;1.20;;;10.90;99.90;;;;;;5040336;28;20471;-69
2022/03/17 11:55:52;;;;;;;3.60;1.20;;;10.80;99.90;;;;;;5038136;28;21300;-70
2022/03/17 11:58:28;;;;;;;7.23;1.50;;;10.90;99.90;;;;;;5041262;28;20422;-69
2022/03/17 12:01:04;;;;;;;4.30;2.33;;;11.00;99.90;;;;;;5047689;28;20422;-70
2022/03/17 12:03:32;;;;;;;3.40;1.20;;;10.90;99.90;;;;;;5043380;28;20488;-69
2022/03/17 12:06:16;;;;;;;3.20;1.00;;;10.90;99.90;;;;;;5042175;28;20573;-69
2022/03/17 12:08:51;;;;;;;4.70;1.57;;;11.00;99.90;;;;;;5045586;28;20600;-70
2022/03/17 12:11:22;;;;;;;1.87;1.47;;;11.40;99.90;;;;;;5045046;28;20573;-70
2022/03/17 12:14:21;;;;;;;2.13;1.30;;;12.10;99.90;;;;;;5039646;28;20902;-70
2022/03/17 12:16:49;;;;;;;5.93;1.77;;;12.70;99.90;;;;;;5042615;28;20457;-70
2022/03/17 12:19:31;;;;;;;2.30;1.20;;;13.40;99.90;;;;;;5044547;28;20459;-69
2022/03/17 12:22:15;;;;;;;6.30;1.20;;;13.80;99.90;;;;;;5037463;28;20460;-70
2022/03/17 12:24:49;;;;;;;8.20;1.60;;;13.60;99.90;;;;;;5037906;28;20948;-69
2022/03/17 12:27:22;;;;;;;4.53;1.87;;;13.60;99.90;;;;;;5034864;28;20459;-69
2022/03/17 12:29:54;;;;;;;2.13;1.93;;;13.20;99.90;;;;;;5042553;28;20656;-68
2022/03/17 12:32:23;;;;;;;2.23;1.60;;;13.10;99.90;;;;;;5040276;28;20464;-69
2022/03/17 12:34:51;;;;;;;7.10;2.13;;;12.70;99.90;;;;;;5040751;28;20679;-69
2022/03/17 12:37:19;;;;;;;1.57;1.27;;;12.20;99.90;;;;;;5040751;28;21277;-69
2022/03/17 12:39:50;;;;;;;11.90;1.93;;;11.90;99.90;;;;;;5038590;28;20939;-69
2022/03/17 12:42:19;;;;;;;2.53;1.60;;;11.90;99.90;;;;;;5040739;28;20456;-69
2022/03/17 12:44:57;;;;;;;5.73;2.90;;;12.00;99.90;;;;;;5039202;28;20510;-69
2022/03/17 12:47:25;;;;;;;1.50;1.40;;;12.00;99.90;;;;;;5043208;28;20467;-70
2022/03/17 12:49:53;;;;;;;2.60;1.43;;;12.30;99.90;;;;;;5040954;28;20471;-70
2022/03/17 12:52:22;;;;;;;4.50;1.20;;;12.50;99.90;;;;;;5041222;28;20446;-69
2022/03/17 12:54:55;;;;;;;5.17;1.90;;;12.20;99.90;;;;;;5037373;28;20573;-69
2022/03/17 12:57:23;;;;;;;3.20;1.33;;;11.80;99.90;;;;;;5037449;28;20426;-70
2022/03/17 12:59:50;;;;;;;1.60;1.30;;;11.80;99.90;;;;;;5035414;28;20879;-70